| 5/5/2026 | Compass Financial Group Inc. | 96,871 | $3.46M | 1.6% | +9.3% | 0.062% | |
| 5/5/2026 | Sanctuary Advisors LLC | 66,711 | $2.38M | 0.0% | +8.9% | 0.043% | |
| 5/5/2026 | Cornerstone Advisory LLC | 5,939 | $212K | 0.0% | N/A | 0.004% | |
| 5/4/2026 | Summit Wealth Group LLC | 102,082 | $3.65M | 0.8% | +2.4% | 0.066% | |
| 5/4/2026 | Chicago Partners Investment Group LLC | 373,652 | $13.96M | 0.3% | -4.5% | 0.241% | |
| 5/4/2026 | Ruedi Wealth Management Inc. | 260,194 | $9.29M | 2.4% | +11.3% | 0.168% | |
| 5/4/2026 | Vantage Point Financial LLC | 85,625 | $3.06M | 1.1% | -4.3% | 0.055% | |
| 5/2/2026 | Navigate Wealth Management LLC | 291,137 | $10.87M | 7.6% | N/A | 0.187% | |
| 5/1/2026 | Summit Financial Strategies Inc. | 2,408,269 | $86.00M | 6.8% | +9.4% | 1.562% | |
| 5/1/2026 | Sequoia Financial Advisors LLC | 201,543 | $7.20M | 0.0% | -21.3% | 0.131% | |
Get the Latest News and Ratings for DFLV and Related Stocks Enter your email address below to receive the latest news and analysts' ratings for Dimensional US Large Cap Value ETF and its competitors with MarketBeat's FREE daily newsletter.
|
| 4/30/2026 | Team Hewins LLC | 944,372 | $33.72M | 10.0% | +3.2% | 0.612% | |
| 4/30/2026 | Valued Wealth Advisors LLC | 9,880 | $353K | 0.1% | +164,566.7% | 0.006% | |
| 4/30/2026 | Mosaic Family Wealth Partners LLC | 2,995,202 | $106.96M | 10.9% | +1.3% | 1.942% | |
| 4/30/2026 | Kestra Advisory Services LLC | 48,601 | $1.74M | 0.0% | +1.5% | 0.032% | |
| 4/30/2026 | Austin Asset Management Co Inc | 432,188 | $15.43M | 2.6% | +0.5% | 0.280% | |
| 4/30/2026 | CFS Investment Advisory Services LLC | 12,787 | $478K | 0.0% | -12.4% | 0.008% | |
| 4/30/2026 | Staley Capital Advisers Inc. | 68,994 | $2.46M | 0.1% | +29.1% | 0.045% | |
| 4/29/2026 | Oceanside Advisors LLC | 30,235 | $1.08M | 0.6% | +12.3% | 0.020% | |
| 4/29/2026 | Canvas Wealth Advisors LLC | 9,913 | $354K | 0.1% | -10.8% | 0.006% | |
| 4/28/2026 | Pine Harbor Wealth Management LLC | 77,770 | $2.78M | 0.8% | -9.7% | 0.051% | |
| 4/28/2026 | Berger Financial Group Inc | 49,697 | $1.78M | 0.1% | -3.8% | 0.032% | |
| 4/27/2026 | TCI Wealth Advisors Inc. | 294,720 | $10.52M | 0.6% | +9.0% | 0.192% | |
| 4/27/2026 | Apeiron RIA LLC | 91,678 | $3.27M | 0.8% | +4.0% | 0.060% | |
| 4/27/2026 | Mustard Seed Financial LLC | 222,848 | $7.96M | 4.8% | +10.5% | 0.145% | |
| 4/27/2026 | BIP Wealth LLC | 153,699 | $5.49M | 0.2% | +18.5% | 0.100% | |
| 4/27/2026 | Legacy Financial Group Inc. | 286,884 | $10.25M | 2.7% | +4.4% | 0.186% | |
| 4/27/2026 | Private Advisor Group LLC | 126,404 | $4.51M | 0.0% | +18.6% | 0.082% | |
| 4/24/2026 | Root Financial Partners LLC | 3,143,873 | $112.27M | 5.2% | +14.6% | 2.052% | |
| 4/24/2026 | Essex Financial Services Inc. | 65,124 | $2.33M | 0.1% | +3.6% | 0.043% | |
| 4/24/2026 | Acorn Financial Advisory Services Inc. ADV | 62,659 | $2.24M | 0.3% | +877.8% | 0.041% | |
| 4/24/2026 | Mitchell Mcleod Pugh & Williams Inc. | 10,946 | $391K | 0.1% | -4.3% | 0.007% | |
| 4/24/2026 | Equita Financial Network Inc. | 363,171 | $12.97M | 4.1% | +11.8% | 0.237% | |
| 4/24/2026 | Johnson Wealth Management LLC | 174,681 | $6.24M | 3.0% | +9.5% | 0.114% | |
| 4/23/2026 | Master S Wealth Management Inc. | 161,810 | $5.78M | 2.0% | +13.3% | 0.106% | |
| 4/23/2026 | Drucker Wealth 3.0 LLC | 57,088 | $2.04M | 0.4% | -6.6% | 0.037% | |
| 4/23/2026 | Formidable Asset Management LLC | 33,605 | $1.15M | 0.2% | +3.1% | 0.022% | |
| 4/22/2026 | First Financial Group Corp | 136,991 | $4.89M | 4.0% | +9.5% | 0.089% | |
| 4/22/2026 | LifeSteps Financial Inc. | 28,439 | $1.02M | 0.6% | N/A | 0.019% | |
| 4/22/2026 | Vannoy Advisory Group Inc. | 71,395 | $2.55M | 1.6% | -2.8% | 0.047% | |
| 4/22/2026 | Foundry Financial LLC | 426,999 | $15.25M | 6.5% | +50.0% | 0.279% | |
|
| 4/21/2026 | Compass Advisory Group LLC | 554,370 | $19.80M | 5.3% | N/A | 0.363% | |
| 4/21/2026 | RCS Financial Planning LLC | 11,633 | $415K | 0.2% | -16.4% | 0.008% | |
| 4/21/2026 | Long Island Wealth Management Inc. | 22,146 | $791K | 0.4% | +194.2% | 0.014% | |
| 4/21/2026 | Tumwater Wealth Management LLC | 894,899 | $31.96M | 12.9% | +0.4% | 0.586% | |
| 4/21/2026 | Triangle Securities Wealth Management | 17,075 | $610K | 0.1% | +88.7% | 0.011% | |
| 4/20/2026 | Factor Wealth Management LTD | 76,318 | $2.73M | 0.5% | +3.0% | 0.050% | |
| 4/20/2026 | Strategent Financial LLC | 94,883 | $3.39M | 2.3% | +0.4% | 0.062% | |
| 4/20/2026 | Blue Trust Inc. | 163,877 | $5.85M | 0.1% | +6.3% | 0.107% | |
| 4/20/2026 | RFG Advisory LLC | 331,896 | $11.85M | 0.2% | +2.3% | 0.217% | |
| 4/20/2026 | Apella Capital LLC | 1,464,732 | $54.71M | 0.8% | +11.1% | 0.959% | |
| 4/18/2026 | Vermillion Wealth Management Inc. | 974 | $35K | 0.0% | +58.4% | 0.001% | |
| 4/17/2026 | Discipline Wealth Solutions LLC | 6,856 | $245K | 0.0% | N/A | 0.004% | |
| 4/17/2026 | Ocean Park Asset Management LLC | 21,300 | $761K | 0.0% | N/A | 0.014% | |
| 4/17/2026 | Clark Asset Management LLC | 15,266 | $545K | 0.1% | +46.1% | 0.010% | |
| 4/16/2026 | Sprinkle Financial Consultants LLC | 127,214 | $4.54M | 2.1% | +1.7% | 0.084% | |
| 4/16/2026 | Triad Wealth Partners LLC | 10,886 | $389K | 0.0% | -23.7% | 0.007% | |
| 4/16/2026 | McClarren Financial Advisors Inc. | 10,948 | $391K | 0.2% | +406.6% | 0.007% | |
| 3/11/2026 | Larry Mathis Financial Planning LLC | 15,751 | $539K | 0.5% | N/A | 0.011% | |
| 3/9/2026 | Corient Private Wealth LLC | 6,263,508 | $214.28M | 0.2% | +21.4% | 4.493% | |
| 2/27/2026 | Financially in Tune LLC | 26,299 | $900K | 0.8% | N/A | 0.019% | |
| 2/26/2026 | BDFS Capital LLC | 109,865 | $3.76M | 1.9% | N/A | 0.079% | |
| 2/23/2026 | McMill Wealth Management | 52,730 | $1.80M | 0.5% | +5.4% | 0.038% | |
| 2/20/2026 | SB Capital Management Inc | 224,042 | $7.66M | 2.8% | N/A | 0.161% | |
| 2/19/2026 | Professional Financial Solutions LLC ADV | 77,990 | $2.67M | 2.5% | N/A | 0.056% | |
| 2/19/2026 | Axxcess Wealth Management LLC | 18,310 | $626K | 0.0% | N/A | 0.013% | |
| 2/19/2026 | Corient Private Wealth LLC | 5,967,378 | $204.14M | 0.1% | +15.7% | 4.281% | |
| 2/18/2026 | Mercer Global Advisors Inc. ADV | 7,287 | $249K | 0.0% | +19.0% | 0.005% | |
| 2/18/2026 | Beacon Pointe Advisors LLC | 2,075,239 | $70.99M | 0.5% | +12.0% | 1.489% | |
| 2/18/2026 | EP Wealth Advisors LLC | 3,126,872 | $106.97M | 0.6% | N/A | 2.243% | |
| 2/18/2026 | NewEdge Advisors LLC | 197,246 | $6.75M | 0.0% | -5.7% | 0.141% | |
| 2/18/2026 | Vance Wealth LLC | 198,367 | $6.79M | 2.0% | +16.7% | 0.142% | |
| 2/18/2026 | Sterling Wealth Management Inc. | 373,537 | $12.78M | 3.6% | +13.6% | 0.268% | |
| 2/18/2026 | Stage Harbor Financial LLC | 632,635 | $21.64M | 14.6% | +4.4% | 0.454% | |
| 2/18/2026 | Opus Financial Solutions LLC | 15,782 | $540K | 0.5% | N/A | 0.011% | |
| 2/17/2026 | Redwood Park Advisors LLC | 151,940 | $5.20M | 3.5% | +18.6% | 0.109% | |
| 2/17/2026 | AQR Capital Management LLC | 13,491 | $462K | 0.0% | +42.5% | 0.010% | |
| 2/17/2026 | Cetera Investment Advisers | 2,321,233 | $79.41M | 0.1% | +15.1% | 1.665% | |
| 2/17/2026 | Cardiff Park Advisors LLC | 28,858 | $987K | 0.1% | -13.3% | 0.021% | |
| 2/17/2026 | Envision Financial Planning LLC | 94,425 | $3.23M | 1.2% | +4.5% | 0.068% | |
| 2/17/2026 | Momentous Wealth Management Inc. | 25,119 | $859K | 0.5% | -87.5% | 0.018% | |
| 2/17/2026 | Hilltop Holdings Inc. | 13,299 | $455K | 0.0% | -21.2% | 0.010% | |
| 2/17/2026 | Equitable Holdings Inc. | 55,510 | $1.90M | 0.0% | +0.8% | 0.040% | |
| 2/17/2026 | Wealth Architects LLC | 661,399 | $22.63M | 2.0% | +9.1% | 0.474% | |
| 2/17/2026 | Osaic Holdings Inc. | 201,915 | $6.91M | 0.0% | -1.9% | 0.145% | |
| 2/17/2026 | Private Advisor Group LLC | 106,579 | $3.65M | 0.0% | +3.6% | 0.076% | |
| 2/17/2026 | Donalies Financial Planning LLC | 9,112 | $312K | 0.3% | N/A | 0.007% | |
| 2/17/2026 | Captrust Financial Advisors | 43,497 | $1.49M | 0.0% | +6.6% | 0.031% | |
| 2/17/2026 | Royal Bank of Canada | 22,926 | $784K | 0.0% | -48.2% | 0.016% | |
| 2/16/2026 | Seneschal Advisors LLC | 22,377 | $766K | 0.6% | -2.0% | 0.016% | |
| 2/16/2026 | Tobias Financial Advisors Inc. | 599,978 | $20.53M | 2.9% | +14.3% | 0.430% | |
|
| 2/16/2026 | MML Investors Services LLC | 193,654 | $6.63M | 0.0% | +8.2% | 0.139% | |
| 2/16/2026 | Mariner LLC | 942,514 | $32.24M | 0.0% | +23.1% | 0.676% | |
| 2/16/2026 | Focus Partners Wealth | 270,266 | $9.25M | 0.0% | +5.9% | 0.194% | |
| 2/16/2026 | E6 Portfolios LLC | 66,611 | $2.28M | 2.6% | N/A | 0.048% | |
| 2/16/2026 | Arax Advisory Partners | 114,365 | $3.91M | 0.1% | N/A | 0.082% | |
| 2/13/2026 | Kestra Advisory Services LLC | 47,874 | $1.64M | 0.0% | -1.0% | 0.034% | |
| 2/13/2026 | Fortis Capital Management LLC | 6,869 | $235K | 0.0% | N/A | 0.005% | |
| 2/13/2026 | Stifel Financial Corp | 191,938 | $6.57M | 0.0% | +6.5% | 0.138% | |
| 2/13/2026 | Smartleaf Asset Management LLC | 6,210 | $214K | 0.0% | N/A | 0.004% | |
| 2/13/2026 | Mosaic Family Wealth Partners LLC | 2,957,759 | $101.19M | 11.1% | -3.1% | 2.122% | |